createdAt,value
2023-05-09T00:00:06.564Z,41.28
2023-05-09T00:02:36.155Z,34.17
2023-05-09T00:05:05.448Z,37.25
2023-05-09T00:07:33.773Z,37.35
2023-05-09T00:10:02.296Z,34.13
2023-05-09T00:12:31.015Z,34.85
2023-05-09T00:14:59.362Z,36.88
2023-05-09T00:17:29.151Z,36.78
2023-05-09T00:19:57.542Z,37.78
2023-05-09T00:22:25.892Z,37.55
2023-05-09T00:24:54.768Z,37.92
2023-05-09T00:27:23.115Z,39.05
2023-05-09T00:29:51.640Z,36.67
2023-05-09T00:32:20.382Z,34.70
2023-05-09T00:34:50.232Z,39.13
2023-05-09T00:37:19.229Z,37.55
2023-05-09T00:39:48.215Z,37.05
2023-05-09T00:42:16.773Z,33.75
2023-05-09T00:44:45.336Z,34.80
2023-05-09T00:47:13.774Z,37.05
2023-05-09T00:49:42.279Z,29.80
2023-05-09T00:52:12.042Z,36.92
2023-05-09T00:54:40.709Z,33.70
2023-05-09T00:57:09.765Z,34.75
2023-05-09T00:59:38.476Z,35.42
2023-05-09T01:02:06.922Z,38.25
2023-05-09T01:04:35.762Z,34.72
2023-05-09T01:07:11.006Z,34.15
2023-05-09T01:09:47.963Z,35.35
2023-05-09T01:12:31.718Z,38.47
2023-05-09T01:15:06.920Z,34.10
2023-05-09T01:17:44.861Z,33.22
2023-05-09T01:20:17.801Z,37.70
2023-05-09T01:22:49.641Z,37.00
2023-05-09T01:25:39.179Z,38.00
2023-05-09T01:28:15.679Z,33.83
2023-05-09T01:30:48.006Z,35.60
2023-05-09T01:33:19.350Z,35.65
2023-05-09T01:35:52.356Z,34.97
2023-05-09T01:38:24.851Z,36.80
2023-05-09T01:40:55.769Z,38.28
2023-05-09T01:43:26.637Z,35.53
2023-05-09T01:45:57.989Z,41.25
2023-05-09T01:48:28.763Z,33.92
2023-05-09T01:50:58.439Z,44.17
2023-05-09T01:53:29.155Z,35.95
2023-05-09T01:55:58.373Z,35.20
2023-05-09T01:58:27.998Z,40.35
2023-05-09T02:00:58.110Z,35.35
2023-05-09T02:03:26.905Z,37.08
2023-05-09T02:05:57.671Z,40.50
2023-05-09T02:08:27.562Z,36.92
2023-05-09T02:10:56.487Z,39.25
2023-05-09T02:13:24.961Z,40.50
2023-05-09T02:15:54.089Z,37.88
2023-05-09T02:18:23.785Z,34.70
2023-05-09T02:20:52.815Z,35.05
2023-05-09T02:23:22.128Z,42.05
2023-05-09T02:25:51.632Z,38.08
2023-05-09T02:28:22.090Z,39.85
2023-05-09T02:30:53.183Z,39.75
2023-05-09T02:33:24.057Z,43.25
2023-05-09T02:35:53.500Z,45.33
2023-05-09T02:38:22.639Z,37.00
2023-05-09T02:40:52.592Z,39.25
2023-05-09T02:43:21.586Z,36.55
2023-05-09T02:45:50.640Z,36.50
2023-05-09T02:48:19.724Z,42.03
2023-05-09T02:50:49.753Z,41.17
2023-05-09T02:53:18.204Z,38.78
2023-05-09T02:55:46.697Z,36.78
2023-05-09T02:58:15.311Z,43.10
2023-05-09T03:00:45.668Z,38.28
2023-05-09T03:03:18.032Z,39.70
2023-05-09T03:05:48.992Z,42.65
2023-05-09T03:08:17.342Z,38.75
2023-05-09T03:10:45.997Z,37.00
2023-05-09T03:13:15.662Z,45.42
2023-05-09T03:15:44.158Z,49.00
2023-05-09T03:18:14.147Z,45.60
2023-05-09T03:20:43.595Z,41.97
2023-05-09T03:23:13.532Z,42.35
2023-05-09T03:25:42.040Z,42.15
2023-05-09T03:28:10.615Z,48.60
2023-05-09T03:30:39.195Z,47.53
2023-05-09T03:33:11.346Z,49.90
2023-05-09T03:35:39.932Z,52.30
2023-05-09T03:38:09.087Z,43.58
2023-05-09T03:40:39.170Z,43.55
2023-05-09T03:43:10.805Z,45.60
2023-05-09T03:45:39.650Z,54.03
2023-05-09T03:48:11.379Z,45.53
2023-05-09T03:50:45.738Z,44.10
2023-05-09T03:53:15.512Z,41.90
2023-05-09T03:55:47.391Z,49.05
2023-05-09T03:58:19.207Z,48.00
2023-05-09T04:00:47.909Z,41.45
2023-05-09T04:03:22.151Z,50.38
2023-05-09T04:05:52.965Z,43.00
2023-05-09T04:08:30.163Z,40.40
2023-05-09T04:11:01.051Z,41.70
2023-05-09T04:13:32.027Z,37.20
2023-05-09T04:16:03.476Z,35.53
2023-05-09T04:18:34.295Z,31.80
2023-05-09T04:21:03.448Z,31.17
2023-05-09T04:23:32.148Z,30.02
2023-05-09T04:26:02.780Z,30.38
2023-05-09T04:28:31.979Z,29.88
2023-05-09T04:31:00.659Z,29.60
2023-05-09T04:33:30.042Z,24.95
2023-05-09T04:36:02.929Z,26.02
2023-05-09T04:38:31.478Z,31.08
2023-05-09T04:41:00.177Z,25.58
2023-05-09T04:43:31.206Z,26.80
2023-05-09T04:46:01.298Z,25.83
2023-05-09T04:48:29.887Z,24.13
2023-05-09T04:50:58.293Z,24.50
2023-05-09T04:53:28.403Z,23.17
2023-05-09T04:55:57.605Z,25.02
2023-05-09T04:58:26.665Z,22.63
2023-05-09T05:00:58.195Z,22.40
2023-05-09T05:03:26.905Z,21.58
2023-05-09T05:05:55.360Z,19.65
2023-05-09T05:08:24.074Z,20.08
2023-05-09T05:10:52.503Z,20.10
2023-05-09T05:13:21.936Z,20.40
2023-05-09T05:15:54.661Z,24.95
2023-05-09T05:18:25.144Z,21.48
2023-05-09T05:20:55.275Z,16.38
2023-05-09T05:23:24.092Z,17.80
2023-05-09T05:25:55.133Z,17.60
2023-05-09T05:28:24.655Z,16.13
2023-05-09T05:30:53.047Z,15.60
2023-05-09T05:33:21.408Z,15.35
2023-05-09T05:35:51.371Z,16.45
2023-05-09T05:38:19.729Z,12.95
2023-05-09T05:40:51.894Z,16.15
2023-05-09T05:43:21.022Z,14.00
2023-05-09T05:45:49.756Z,11.55
2023-05-09T05:48:20.813Z,14.10
2023-05-09T05:50:51.255Z,11.77
2023-05-09T05:53:23.444Z,11.85
2023-05-09T05:55:52.913Z,11.02
2023-05-09T05:58:22.833Z,11.10
2023-05-09T06:00:52.451Z,11.85
2023-05-09T06:03:21.068Z,11.52
2023-05-09T06:05:57.160Z,10.20
2023-05-09T06:08:25.648Z,9.13
2023-05-09T06:10:54.039Z,9.93
2023-05-09T06:13:22.631Z,8.73
2023-05-09T06:16:01.970Z,10.10
2023-05-09T06:18:37.700Z,9.70
2023-05-09T06:21:08.199Z,8.65
2023-05-09T06:23:40.547Z,9.10
2023-05-09T06:26:14.478Z,9.93
2023-05-09T06:28:42.904Z,8.07
2023-05-09T06:31:11.593Z,8.50
2023-05-09T06:33:39.934Z,8.77
2023-05-09T06:36:10.152Z,9.20
2023-05-09T06:38:38.508Z,8.38
2023-05-09T06:41:06.874Z,11.52
2023-05-09T06:43:35.327Z,10.30
2023-05-09T06:46:03.897Z,10.93
2023-05-09T06:48:32.434Z,9.10
2023-05-09T06:51:00.995Z,9.88
2023-05-09T06:53:30.717Z,9.18
2023-05-09T06:55:59.299Z,10.55
2023-05-09T06:58:28.013Z,11.05
2023-05-09T07:00:56.543Z,9.95
2023-05-09T07:03:25.035Z,9.40
2023-05-09T07:05:53.451Z,8.07
2023-05-09T07:08:21.814Z,9.57
2023-05-09T07:10:51.701Z,8.75
2023-05-09T07:13:20.175Z,8.07
2023-05-09T07:15:48.529Z,8.20
2023-05-09T07:18:16.911Z,7.55
2023-05-09T07:20:45.285Z,7.97
2023-05-09T07:23:13.742Z,7.40
2023-05-09T07:25:42.161Z,5.15
2023-05-09T07:28:12.558Z,5.85
2023-05-09T07:30:41.635Z,8.15
2023-05-09T07:33:10.324Z,5.63
2023-05-09T07:35:38.967Z,5.80
2023-05-09T07:38:07.784Z,7.30
2023-05-09T07:40:38.570Z,5.10
2023-05-09T07:43:06.986Z,5.43
2023-05-09T07:45:36.729Z,6.40
2023-05-09T07:48:05.717Z,7.15
2023-05-09T07:50:34.996Z,5.80
2023-05-09T07:53:04.070Z,9.07
2023-05-09T07:55:32.750Z,5.10
2023-05-09T07:58:01.154Z,5.03
2023-05-09T08:00:29.789Z,5.20
2023-05-09T08:02:59.792Z,7.70
2023-05-09T08:05:28.377Z,5.25
2023-05-09T08:07:56.724Z,4.90
2023-05-09T08:10:26.641Z,5.70
2023-05-09T08:12:55.052Z,4.55
2023-05-09T08:15:24.440Z,5.28
2023-05-09T08:17:53.146Z,5.28
2023-05-09T08:20:22.977Z,5.93
2023-05-09T08:22:51.336Z,5.25
2023-05-09T08:25:20.713Z,5.40
2023-05-09T08:27:51.582Z,6.78
2023-05-09T08:30:21.636Z,4.72
2023-05-09T08:32:50.039Z,5.32
2023-05-09T08:35:18.952Z,5.10
2023-05-09T08:37:48.816Z,4.40
2023-05-09T08:40:17.888Z,5.75
2023-05-09T08:42:46.743Z,4.88
2023-05-09T08:45:17.542Z,4.88
2023-05-09T08:47:47.088Z,4.40
2023-05-09T08:50:17.347Z,4.22
2023-05-09T08:52:47.955Z,5.03
2023-05-09T08:55:16.459Z,4.80
2023-05-09T08:57:45.292Z,4.80
2023-05-09T09:00:17.212Z,5.60
2023-05-09T09:02:47.239Z,5.90
2023-05-09T09:05:24.281Z,6.25
2023-05-09T09:08:05.294Z,4.60
2023-05-09T09:10:34.150Z,4.75
2023-05-09T09:13:06.063Z,4.43
2023-05-09T09:15:37.271Z,4.03
2023-05-09T09:18:09.985Z,4.85
2023-05-09T09:20:46.053Z,4.33
2023-05-09T09:23:19.801Z,5.95
2023-05-09T09:25:48.519Z,5.47
2023-05-09T09:28:17.321Z,3.40
2023-05-09T09:30:46.002Z,3.65
2023-05-09T09:33:20.093Z,3.45
2023-05-09T09:35:50.058Z,4.37
2023-05-09T09:38:20.872Z,3.63
2023-05-09T09:40:56.734Z,6.15
2023-05-09T09:43:28.989Z,6.25
2023-05-09T09:45:58.453Z,4.22
2023-05-09T09:48:27.439Z,5.70
2023-05-09T09:50:57.712Z,3.85
2023-05-09T09:53:30.927Z,4.55
2023-05-09T09:56:00.703Z,3.97
2023-05-09T09:58:29.292Z,4.03
2023-05-09T10:01:11.579Z,4.00
2023-05-09T10:03:42.501Z,3.83
2023-05-09T10:06:14.601Z,4.40
2023-05-09T10:08:46.777Z,5.05
2023-05-09T10:11:17.169Z,3.35
2023-05-09T10:13:47.184Z,3.40
2023-05-09T10:16:25.908Z,4.55
2023-05-09T10:19:05.668Z,4.00
2023-05-09T10:21:45.914Z,3.78
2023-05-09T10:24:17.761Z,4.60
2023-05-09T10:26:51.169Z,4.15
2023-05-09T10:29:27.327Z,3.65
2023-05-09T10:32:27.679Z,4.40
2023-05-09T10:35:07.809Z,3.80
2023-05-09T10:37:40.060Z,4.35
2023-05-09T10:40:15.631Z,5.13
2023-05-09T10:42:45.555Z,5.35
2023-05-09T10:45:15.468Z,4.70
2023-05-09T10:47:45.468Z,4.32
2023-05-09T10:50:29.145Z,5.53
2023-05-09T10:53:14.970Z,4.28
2023-05-09T10:55:58.443Z,4.57
2023-05-09T10:58:29.609Z,4.55
2023-05-09T11:00:59.833Z,3.72
2023-05-09T11:03:54.683Z,6.10
2023-05-09T11:06:46.421Z,6.03
2023-05-09T11:09:30.072Z,3.88
2023-05-09T11:12:19.797Z,4.07
2023-05-09T11:14:51.713Z,3.70
2023-05-09T11:17:36.444Z,3.47
2023-05-09T11:20:07.272Z,4.28
2023-05-09T11:22:44.652Z,4.80
2023-05-09T11:28:03.399Z,4.32
2023-05-09T11:30:41.691Z,4.03
2023-05-09T11:33:33.552Z,4.15
2023-05-09T11:36:19.890Z,4.47
2023-05-09T11:38:48.970Z,3.95
2023-05-09T11:41:17.387Z,4.35
2023-05-09T11:43:47.479Z,3.38
2023-05-09T11:46:16.441Z,4.65
2023-05-09T11:48:45.173Z,4.43
2023-05-09T11:51:19.167Z,4.70
2023-05-09T11:53:51.338Z,4.50
2023-05-09T11:56:19.761Z,4.25
2023-05-09T11:58:51.970Z,5.05
2023-05-09T12:01:20.820Z,5.40
2023-05-09T12:03:49.711Z,6.13
2023-05-09T12:06:19.563Z,5.82
2023-05-09T12:08:49.197Z,4.90
2023-05-09T12:11:19.006Z,5.95
2023-05-09T12:13:50.273Z,6.57
2023-05-09T12:16:20.186Z,5.65
2023-05-09T12:18:49.956Z,5.75
2023-05-09T12:21:19.151Z,4.53
2023-05-09T12:23:50.961Z,6.13
2023-05-09T12:26:22.778Z,5.07
2023-05-09T12:28:53.107Z,5.07
2023-05-09T12:31:21.750Z,5.70
2023-05-09T12:33:50.471Z,3.92
2023-05-09T12:36:19.470Z,4.10
2023-05-09T12:38:54.696Z,3.60
2023-05-09T12:43:59.880Z,4.78
2023-05-09T12:46:28.325Z,4.90
2023-05-09T12:48:57.419Z,3.50
2023-05-09T12:51:25.992Z,4.30
2023-05-09T12:53:54.399Z,3.78
2023-05-09T12:56:24.003Z,2.92
2023-05-09T12:58:53.666Z,2.63
2023-05-09T13:01:28.709Z,2.75
2023-05-09T13:04:03.512Z,2.75
2023-05-09T13:06:32.258Z,3.08
2023-05-09T13:09:12.263Z,3.85
2023-05-09T13:11:40.640Z,3.60
2023-05-09T13:14:09.636Z,2.72
2023-05-09T13:16:39.460Z,2.70
2023-05-09T13:19:35.354Z,5.10
2023-05-09T13:22:03.767Z,3.83
2023-05-09T13:24:32.530Z,2.33
2023-05-09T13:27:01.441Z,3.85
2023-05-09T13:29:30.102Z,2.80
2023-05-09T13:32:00.162Z,4.30
2023-05-09T13:34:28.542Z,2.72
2023-05-09T13:36:57.156Z,2.92
2023-05-09T13:39:25.476Z,4.20
2023-05-09T13:41:53.848Z,4.05
2023-05-09T13:44:23.595Z,2.88
2023-05-09T13:46:52.043Z,4.13
2023-05-09T13:49:22.271Z,3.53
2023-05-09T13:52:01.176Z,4.55
2023-05-09T13:54:34.845Z,3.72
2023-05-09T13:57:04.601Z,4.40
2023-05-09T13:59:33.471Z,2.80
2023-05-09T14:02:26.894Z,4.10
2023-05-09T14:04:56.564Z,3.92
2023-05-09T14:07:24.992Z,3.67
2023-05-09T14:10:10.997Z,3.63
2023-05-09T14:12:40.819Z,4.43
2023-05-09T14:15:09.910Z,5.35
2023-05-09T14:18:05.392Z,4.65
2023-05-09T14:20:37.131Z,4.22
2023-05-09T14:23:05.672Z,3.58
2023-05-09T14:25:37.056Z,4.28
2023-05-09T14:28:06.862Z,4.97
2023-05-09T14:30:35.236Z,4.15
2023-05-09T14:33:03.628Z,3.72
2023-05-09T14:35:33.820Z,2.70
2023-05-09T14:38:13.674Z,2.33
2023-05-09T14:40:42.087Z,3.03
2023-05-09T14:43:11.282Z,3.10
2023-05-09T14:45:40.277Z,2.20
2023-05-09T14:48:09.021Z,2.83
2023-05-09T14:50:37.434Z,3.28
2023-05-09T14:53:07.635Z,2.40
2023-05-09T14:55:36.216Z,3.80
2023-05-09T14:58:04.611Z,2.50
2023-05-09T15:00:42.735Z,2.95
2023-05-09T15:03:11.756Z,3.30
2023-05-09T15:05:40.382Z,3.70
2023-05-09T15:08:10.540Z,6.13
2023-05-09T15:10:56.125Z,3.53
2023-05-09T15:13:24.813Z,3.17
2023-05-09T15:15:53.477Z,3.13
2023-05-09T15:18:23.630Z,3.10
2023-05-09T15:21:09.764Z,3.22
2023-05-09T15:23:39.717Z,2.90
2023-05-09T15:26:12.029Z,2.78
2023-05-09T15:31:36.049Z,2.92
2023-05-09T15:34:04.596Z,5.60
2023-05-09T15:36:47.351Z,2.50
2023-05-09T15:39:17.437Z,4.22
2023-05-09T15:41:45.883Z,2.72
2023-05-09T15:44:14.588Z,4.07
2023-05-09T15:46:43.144Z,4.50
2023-05-09T15:49:11.683Z,3.05
2023-05-09T15:51:40.346Z,4.28
2023-05-09T15:54:08.801Z,3.63
2023-05-09T15:56:38.777Z,4.40
2023-05-09T15:59:07.268Z,3.83
2023-05-09T16:01:46.072Z,3.85
2023-05-09T16:04:14.760Z,4.80
2023-05-09T16:06:43.331Z,4.55
2023-05-09T16:09:15.290Z,4.78
2023-05-09T16:11:45.044Z,4.18
2023-05-09T16:14:13.723Z,5.43
2023-05-09T16:16:42.929Z,5.38
2023-05-09T16:19:11.320Z,3.90
2023-05-09T16:24:22.718Z,4.10
2023-05-09T16:26:52.442Z,3.67
2023-05-09T16:29:22.317Z,2.70
2023-05-09T16:32:00.110Z,3.10
2023-05-09T16:34:28.542Z,2.33
2023-05-09T16:36:57.192Z,4.10
2023-05-09T16:39:27.780Z,2.55
2023-05-09T16:42:15.417Z,4.47
2023-05-09T16:44:43.813Z,5.05
2023-05-09T16:47:12.263Z,3.17
2023-05-09T16:52:33.835Z,1.40
2023-05-09T16:55:02.466Z,2.38
2023-05-09T16:57:32.164Z,1.65
2023-05-09T17:00:10.670Z,2.53
2023-05-09T17:02:39.080Z,2.13
2023-05-09T17:05:08.403Z,1.65
2023-05-09T17:07:36.816Z,2.90
2023-05-09T17:10:16.003Z,2.75
2023-05-09T17:12:45.979Z,3.08
2023-05-09T17:15:14.598Z,2.30
2023-05-09T17:17:43.511Z,2.53
2023-05-09T17:20:13.236Z,2.88
2023-05-09T17:22:41.745Z,2.95
2023-05-09T17:25:10.795Z,2.45
2023-05-09T17:27:39.618Z,1.95
2023-05-09T17:30:10.849Z,1.63
2023-05-09T17:32:48.785Z,3.55
2023-05-09T17:35:19.306Z,1.98
2023-05-09T17:37:47.682Z,1.88
2023-05-09T17:40:16.724Z,1.98
2023-05-09T17:42:45.266Z,1.75
2023-05-09T17:45:35.812Z,2.97
2023-05-09T17:48:04.281Z,2.85
2023-05-09T17:50:57.332Z,2.55
2023-05-09T17:53:26.471Z,2.92
2023-05-09T17:55:54.834Z,2.42
2023-05-09T17:58:30.228Z,2.83
2023-05-09T18:00:59.994Z,2.72
2023-05-09T18:03:29.449Z,3.20
2023-05-09T18:06:00.065Z,2.47
2023-05-09T18:08:29.450Z,2.22
2023-05-09T18:11:08.360Z,2.22
2023-05-09T18:13:37.113Z,2.75
2023-05-09T18:16:07.433Z,3.03
2023-05-09T18:18:36.469Z,2.92
2023-05-09T18:21:14.587Z,2.03
2023-05-09T18:23:42.954Z,2.00
2023-05-09T18:26:11.327Z,2.35
2023-05-09T18:28:40.082Z,2.20
2023-05-09T18:31:11.716Z,2.00
2023-05-09T18:33:40.595Z,2.30
2023-05-09T18:36:11.247Z,5.82
2023-05-09T18:38:40.801Z,1.98
2023-05-09T18:41:15.391Z,2.35
2023-05-09T18:43:46.901Z,3.42
2023-05-09T18:46:19.829Z,2.35
2023-05-09T18:48:54.674Z,2.22
2023-05-09T18:51:26.270Z,2.78
2023-05-09T18:53:54.918Z,2.25
2023-05-09T18:56:25.386Z,2.80
2023-05-09T18:58:53.917Z,2.33
2023-05-09T19:01:24.245Z,3.08
2023-05-09T19:03:55.001Z,2.92
2023-05-09T19:06:23.981Z,2.83
2023-05-09T19:08:53.690Z,2.50
2023-05-09T19:11:22.483Z,1.85
2023-05-09T19:13:52.790Z,1.85
2023-05-09T19:16:24.852Z,1.70
2023-05-09T19:18:55.812Z,2.40
2023-05-09T19:21:24.337Z,1.90
2023-05-09T19:23:53.245Z,2.45
2023-05-09T19:26:21.952Z,3.22
2023-05-09T19:28:50.353Z,2.38
2023-05-09T19:31:20.514Z,2.40
2023-05-09T19:33:50.537Z,2.78
2023-05-09T19:36:19.245Z,3.13
2023-05-09T19:38:47.678Z,2.88
2023-05-09T19:41:16.283Z,3.35
2023-05-09T19:43:45.282Z,3.10
2023-05-09T19:46:14.138Z,2.72
2023-05-09T19:48:42.527Z,2.72
2023-05-09T19:51:14.643Z,3.20
2023-05-09T19:53:43.495Z,3.42
2023-05-09T19:56:12.667Z,3.05
2023-05-09T19:58:41.027Z,3.85
2023-05-09T20:01:09.545Z,3.63
2023-05-09T20:03:40.674Z,3.80
2023-05-09T20:06:09.409Z,4.32
2023-05-09T20:08:39.062Z,3.88
2023-05-09T20:11:07.728Z,4.35
2023-05-09T20:13:36.394Z,4.25
2023-05-09T20:16:04.990Z,3.30
2023-05-09T20:18:34.118Z,3.53
2023-05-09T20:21:02.850Z,3.80
2023-05-09T20:23:32.306Z,3.75
2023-05-09T20:26:02.360Z,4.82
2023-05-09T20:28:30.978Z,4.10
2023-05-09T20:30:59.350Z,4.47
2023-05-09T20:33:27.864Z,7.07
2023-05-09T20:35:56.207Z,4.05
2023-05-09T20:38:24.565Z,4.90
2023-05-09T20:40:52.903Z,6.13
2023-05-09T20:43:22.644Z,4.13
2023-05-09T20:45:51.763Z,5.15
2023-05-09T20:48:22.737Z,5.50
2023-05-09T20:50:51.122Z,5.30
2023-05-09T20:53:19.522Z,5.63
2023-05-09T20:55:49.645Z,7.53
2023-05-09T20:58:19.124Z,6.70
2023-05-09T21:00:48.812Z,7.75
2023-05-09T21:03:17.901Z,7.43
2023-05-09T21:05:46.508Z,7.97
2023-05-09T21:08:15.070Z,6.80
2023-05-09T21:10:43.504Z,7.72
2023-05-09T21:13:12.036Z,9.75
2023-05-09T21:15:40.391Z,9.27
2023-05-09T21:18:10.245Z,9.88
2023-05-09T21:20:39.387Z,8.70
2023-05-09T21:23:08.031Z,13.90
2023-05-09T21:25:36.453Z,10.60
2023-05-09T21:28:04.848Z,11.05
2023-05-09T21:30:33.432Z,12.20
2023-05-09T21:33:01.871Z,11.10
2023-05-09T21:35:31.603Z,11.90
2023-05-09T21:38:00.337Z,12.15
2023-05-09T21:40:28.736Z,13.05
2023-05-09T21:42:57.356Z,13.48
2023-05-09T21:45:25.929Z,13.63
2023-05-09T21:47:54.803Z,13.05
2023-05-09T21:50:23.806Z,13.60
2023-05-09T21:52:56.026Z,15.18
2023-05-09T21:55:24.811Z,15.57
2023-05-09T21:57:53.220Z,14.55
2023-05-09T22:00:21.763Z,14.38
2023-05-09T22:02:51.228Z,14.80
2023-05-09T22:05:19.712Z,14.80
2023-05-09T22:07:47.986Z,16.25
2023-05-09T22:10:18.371Z,15.60
2023-05-09T22:12:46.911Z,16.23
2023-05-09T22:15:15.361Z,17.02
2023-05-09T22:17:43.782Z,19.90
2023-05-09T22:20:13.422Z,15.07
2023-05-09T22:22:41.927Z,16.58
2023-05-09T22:25:10.824Z,18.45
2023-05-09T22:27:40.712Z,15.30
2023-05-09T22:30:12.126Z,16.92
2023-05-09T22:32:40.662Z,16.20
2023-05-09T22:35:09.905Z,17.35
2023-05-09T22:37:38.545Z,16.58
2023-05-09T22:40:09.187Z,19.10
2023-05-09T22:42:37.628Z,14.80
2023-05-09T22:45:08.887Z,18.20
2023-05-09T22:47:37.492Z,17.73
2023-05-09T22:50:06.772Z,16.80
2023-05-09T22:52:35.204Z,17.25
2023-05-09T22:55:03.564Z,16.80
2023-05-09T22:57:32.095Z,16.55
2023-05-09T23:00:00.382Z,17.92
2023-05-09T23:02:30.384Z,18.23
2023-05-09T23:04:58.761Z,16.05
2023-05-09T23:07:28.085Z,15.57
2023-05-09T23:09:56.401Z,13.43
2023-05-09T23:12:24.962Z,12.00
2023-05-09T23:14:53.660Z,10.98
2023-05-09T23:17:23.080Z,9.35
2023-05-09T23:19:52.944Z,9.73
2023-05-09T23:22:21.306Z,7.88
2023-05-09T23:24:49.604Z,9.00
2023-05-09T23:27:18.086Z,7.78
2023-05-09T23:29:46.503Z,9.35
2023-05-09T23:32:14.847Z,12.10
2023-05-09T23:34:43.287Z,12.07
2023-05-09T23:37:13.029Z,13.73
2023-05-09T23:39:41.580Z,17.00
2023-05-09T23:42:09.942Z,17.25
2023-05-09T23:44:38.568Z,20.02
2023-05-09T23:47:07.475Z,21.42
2023-05-09T23:49:35.869Z,22.90
2023-05-09T23:52:04.506Z,23.35
2023-05-09T23:54:34.452Z,25.05
2023-05-09T23:57:02.924Z,27.63
2023-05-09T23:59:31.281Z,27.63
